Time;durP1;ratioP1;P1;durP2;ratioP2;P2;SDS_P1;SDS_P2;PMS_P1;PMS_P2;Temp;Humidity;BMP_temperature;BMP_pressure;BME280_temperature;BME280_humidity;BME280_pressure;Samples;Min_cycle;Max_cycle;Signal;HPM_P1;HPM_P2
2022/11/30 00:00:36;;;;;;;42.33;22.35;;;;;;;8.57;99.79;102298.72;5065053;28;20032;-50
2022/11/30 00:03:02;;;;;;;41.30;22.08;;;;;;;8.62;99.90;102301.53;5064709;28;20371;-46
2022/11/30 00:05:27;;;;;;;40.47;22.50;;;;;;;8.62;99.73;102292.97;5063993;28;20027;-47
2022/11/30 00:07:55;;;;;;;43.15;21.38;;;;;;;8.58;99.98;102297.91;5059956;28;20127;-48
2022/11/30 00:10:21;;;;;;;38.83;21.27;;;;;;;8.58;100.00;102300.47;5060333;28;20052;-49
2022/11/30 00:12:46;;;;;;;41.65;21.33;;;;;;;8.59;100.00;102303.91;5058279;28;20089;-46
2022/11/30 00:15:13;;;;;;;42.10;21.92;;;;;;;8.55;100.00;102304.53;5063327;28;20032;-45
2022/11/30 00:17:40;;;;;;;41.45;22.23;;;;;;;8.58;100.00;102300.47;5064157;28;20115;-48
2022/11/30 00:20:06;;;;;;;36.40;20.42;;;;;;;8.59;100.00;102307.34;5058356;28;20033;-48
2022/11/30 00:22:32;;;;;;;39.15;20.80;;;;;;;8.55;100.00;102302.88;5061236;28;20049;-49
2022/11/30 00:25:02;;;;;;;44.47;21.90;;;;;;;8.56;100.00;102307.19;5064244;28;20024;-47
2022/11/30 00:27:28;;;;;;;42.40;21.60;;;;;;;8.59;100.00;102306.47;5062897;28;20338;-46
2022/11/30 00:29:53;;;;;;;38.17;20.13;;;;;;;8.58;100.00;102308.16;5062955;28;20545;-48
2022/11/30 00:32:18;;;;;;;43.65;21.23;;;;;;;8.60;100.00;102311.69;5062508;28;20179;-46
2022/11/30 00:34:44;;;;;;;34.15;19.13;;;;;;;8.60;100.00;102303.13;5060570;28;20127;-51
2022/11/30 00:37:09;;;;;;;35.65;18.90;;;;;;;8.65;100.00;102306.84;5063972;28;20060;-49
2022/11/30 00:39:34;;;;;;;37.50;18.35;;;;;;;8.63;100.00;102302.44;5064090;28;20075;-47
2022/11/30 00:42:00;;;;;;;33.60;17.92;;;;;;;8.66;100.00;102308.59;5058773;28;20028;-47
2022/11/30 00:44:25;;;;;;;36.63;18.88;;;;;;;8.64;99.84;102305.06;5062301;28;20044;-47
2022/11/30 00:46:50;;;;;;;28.83;17.48;;;;;;;8.58;99.85;102307.28;5067612;28;20037;-48
2022/11/30 00:49:16;;;;;;;27.13;16.20;;;;;;;8.64;100.00;102306.75;5058109;28;20027;-45
2022/11/30 00:51:41;;;;;;;30.55;17.08;;;;;;;8.55;99.89;102309.66;5052258;28;20401;-47
2022/11/30 00:54:06;;;;;;;26.60;16.75;;;;;;;8.59;100.00;102309.03;5061471;28;20381;-49
2022/11/30 00:56:32;;;;;;;28.90;17.30;;;;;;;8.57;100.00;102308.97;5060377;28;20072;-50
2022/11/30 00:58:57;;;;;;;29.38;16.40;;;;;;;8.61;100.00;102312.56;5063250;28;20032;-47
2022/11/30 01:01:22;;;;;;;28.02;15.93;;;;;;;8.58;100.00;102308.16;5059921;28;20025;-48
2022/11/30 01:03:48;;;;;;;28.23;16.48;;;;;;;8.59;99.94;102312.50;5063312;28;20028;-48
2022/11/30 01:06:13;;;;;;;24.38;16.42;;;;;;;8.64;99.71;102309.31;5062781;28;20036;-49
2022/11/30 01:08:39;;;;;;;31.65;16.38;;;;;;;8.61;99.57;102310.00;5067268;28;20494;-48
2022/11/30 01:11:09;;;;;;;30.40;16.35;;;;;;;8.64;99.56;102305.06;5062131;28;20055;-49
2022/11/30 01:13:34;;;;;;;24.92;16.15;;;;;;;8.60;99.63;102309.13;5060698;28;20029;-47
2022/11/30 01:16:00;;;;;;;28.05;15.98;;;;;;;8.58;99.63;102315.84;5065152;28;20043;-48
2022/11/30 01:18:25;;;;;;;26.63;15.52;;;;;;;8.57;99.53;102308.97;5064907;28;20079;-46
2022/11/30 01:20:51;;;;;;;29.35;16.65;;;;;;;8.54;99.70;102311.31;5067362;28;20040;-46
2022/11/30 01:23:16;;;;;;;28.05;15.90;;;;;;;8.56;99.62;102306.31;5056701;28;20048;-50
2022/11/30 01:25:41;;;;;;;24.27;14.80;;;;;;;8.54;99.50;102311.31;5062123;28;20035;-48
2022/11/30 01:28:08;;;;;;;24.65;15.18;;;;;;;8.58;99.53;102315.84;5064920;28;20036;-47
2022/11/30 01:30:34;;;;;;;20.83;14.27;;;;;;;8.52;99.87;102323.19;5067522;28;20094;-48
2022/11/30 01:33:03;;;;;;;23.90;14.60;;;;;;;8.56;99.28;102311.44;5067103;28;20037;-46
2022/11/30 01:35:28;;;;;;;;;;;;;;;8.73;99.21;102320.09;5068413;28;20032;-45
2022/11/30 01:37:54;;;;;;;22.20;14.73;;;;;;;8.63;98.89;102318.69;5066497;28;19966;-48
2022/11/30 01:40:19;;;;;;;24.48;14.80;;;;;;;8.60;99.12;102319.38;5065887;28;20036;-47
2022/11/30 01:42:46;;;;;;;24.65;14.88;;;;;;;8.62;98.90;102326.31;5066145;28;20446;-51
2022/11/30 01:45:13;;;;;;;24.00;14.95;;;;;;;8.58;99.01;102325.22;5061993;28;20484;-48
2022/11/30 01:47:45;;;;;;;21.15;14.20;;;;;;;8.60;99.15;102327.06;5065064;28;20040;-45
2022/11/30 01:50:17;;;;;;;22.80;14.70;;;;;;;8.63;99.39;102320.38;5064403;28;20468;-45
2022/11/30 01:52:47;;;;;;;21.85;14.30;;;;;;;8.57;99.44;102320.91;5066258;28;20036;-45
2022/11/30 01:55:15;;;;;;;20.77;14.15;;;;;;;8.58;99.45;102328.69;5057699;28;20488;-48
2022/11/30 01:57:55;;;;;;;20.65;14.68;;;;;;;8.60;99.60;102324.50;5065278;28;20031;-47
2022/11/30 02:00:21;;;;;;;22.10;14.90;;;;;;;8.53;99.41;102329.19;5066810;28;20036;-48
2022/11/30 02:03:00;;;;;;;20.45;14.60;;;;;;;8.61;99.63;102333.09;5063635;28;20488;-47
2022/11/30 02:05:26;;;;;;;21.65;13.98;;;;;;;8.63;99.42;102343.47;5060254;28;20067;-47
2022/11/30 02:07:52;;;;;;;21.20;13.98;;;;;;;8.63;99.07;102340.91;5067863;28;20079;-51
2022/11/30 02:10:23;;;;;;;20.90;13.60;;;;;;;8.63;99.21;102336.66;5066546;28;20107;-46
2022/11/30 02:13:03;;;;;;;18.67;13.98;;;;;;;8.62;99.02;102342.56;5064916;28;20036;-46
2022/11/30 02:15:39;;;;;;;22.60;14.10;;;;;;;8.64;98.90;102335.84;5061999;28;20513;-48
2022/11/30 02:18:13;;;;;;;19.92;12.82;;;;;;;8.64;99.43;102342.66;5060929;28;20029;-50
2022/11/30 02:21:04;;;;;;;22.30;14.18;;;;;;;8.68;99.10;102335.25;5059828;28;20855;-49
2022/11/30 02:23:43;;;;;;;23.55;14.55;;;;;;;8.66;99.12;102343.63;5062210;28;20103;-46
2022/11/30 02:26:14;;;;;;;18.52;13.15;;;;;;;8.67;98.94;102335.13;5057817;28;20028;-48
2022/11/30 02:28:55;;;;;;;19.33;13.75;;;;;;;8.63;98.97;102333.19;5061959;28;20806;-48
2022/11/30 02:31:28;;;;;;;21.85;13.40;;;;;;;8.66;99.10;102336.81;5063535;28;20473;-47
2022/11/30 02:33:56;;;;;;;20.85;13.50;;;;;;;8.60;98.81;102341.56;5063206;28;20020;-47
2022/11/30 02:36:22;;;;;;;18.42;13.18;;;;;;;8.62;98.89;102339.13;5060774;28;20493;-49
2022/11/30 02:38:49;;;;;;;20.13;12.90;;;;;;;8.65;98.52;102342.75;5064287;28;20489;-47
2022/11/30 02:41:14;;;;;;;18.67;12.98;;;;;;;8.65;98.81;102340.19;5061402;28;20031;-47
2022/11/30 02:43:40;;;;;;;18.83;13.20;;;;;;;8.68;98.75;102342.94;5067375;28;20032;-46
2022/11/30 02:46:15;;;;;;;21.50;13.30;;;;;;;8.68;98.37;102344.63;5063385;28;20028;-49
2022/11/30 02:49:02;;;;;;;17.92;12.65;;;;;;;8.71;98.74;102339.66;5065517;28;20121;-47
2022/11/30 02:51:31;;;;;;;20.77;13.77;;;;;;;8.68;98.29;102337.81;5061911;28;20032;-48
2022/11/30 02:53:56;;;;;;;20.38;13.73;;;;;;;8.69;98.58;102349.84;5059363;28;20051;-49
2022/11/30 02:56:23;;;;;;;23.30;13.93;;;;;;;8.69;98.24;102341.25;5061821;28;20554;-47
2022/11/30 02:58:48;;;;;;;18.95;12.98;;;;;;;8.69;98.24;102346.38;5054498;28;20032;-48
2022/11/30 03:01:13;;;;;;;20.48;13.43;;;;;;;8.70;97.90;102348.16;5060804;28;20024;-47
2022/11/30 03:03:39;;;;;;;18.88;13.15;;;;;;;8.70;97.74;102346.47;5059999;28;20025;-47
2022/11/30 03:06:04;;;;;;;20.02;13.45;;;;;;;8.73;97.70;102353.44;5064901;28;20111;-48
2022/11/30 03:08:30;;;;;;;17.65;13.07;;;;;;;8.72;97.82;102350.00;5065221;28;20037;-45
2022/11/30 03:10:55;;;;;;;17.98;13.30;;;;;;;8.72;97.55;102359.38;5061855;28;20032;-48
2022/11/30 03:13:20;;;;;;;22.40;13.63;;;;;;;8.73;97.37;102348.31;5058193;28;20029;-46
2022/11/30 03:15:46;;;;;;;18.17;13.02;;;;;;;8.70;97.73;102346.47;5060214;28;20036;-46
2022/11/30 03:18:13;;;;;;;17.00;12.50;;;;;;;8.69;97.64;102349.84;5061748;28;20030;-49
2022/11/30 03:20:41;;;;;;;22.98;13.55;;;;;;;8.71;97.85;102342.22;5060084;28;20078;-49
2022/11/30 03:23:07;;;;;;;19.55;12.80;;;;;;;8.69;97.25;102351.50;5058960;28;20049;-48
2022/11/30 03:25:32;;;;;;;16.98;13.43;;;;;;;8.65;97.51;102347.88;5060493;28;20060;-48
2022/11/30 03:27:59;;;;;;;18.75;12.73;;;;;;;8.67;97.28;102345.38;5056682;28;20047;-48
2022/11/30 03:30:25;;;;;;;18.92;13.10;;;;;;;8.66;97.47;102346.19;5057631;28;20438;-48
2022/11/30 03:32:51;;;;;;;19.80;12.95;;;;;;;8.66;97.72;102348.75;5058819;28;20029;-47
2022/11/30 03:35:16;;;;;;;21.73;13.90;;;;;;;8.67;97.57;102356.53;5058931;28;20074;-47
2022/11/30 03:37:41;;;;;;;21.10;13.90;;;;;;;8.67;97.52;102350.50;5059168;28;20136;-47
2022/11/30 03:40:07;;;;;;;19.65;12.90;;;;;;;8.69;97.45;102347.28;5061561;28;20038;-48
2022/11/30 03:42:32;;;;;;;21.10;13.68;;;;;;;8.65;97.22;102353.00;5059809;28;20051;-50
2022/11/30 03:44:58;;;;;;;18.50;13.18;;;;;;;8.64;97.56;102355.47;5061092;28;20027;-49
2022/11/30 03:47:23;;;;;;;18.83;13.35;;;;;;;8.64;97.49;102352.91;5058523;28;20051;-46
2022/11/30 03:49:48;;;;;;;18.25;12.75;;;;;;;8.65;97.48;102354.69;5061384;28;20032;-49
2022/11/30 03:52:14;;;;;;;18.67;13.07;;;;;;;8.63;97.39;102354.59;5061275;28;20032;-48
2022/11/30 03:54:39;;;;;;;19.25;12.05;;;;;;;8.64;97.56;102358.03;5060147;28;20074;-48
2022/11/30 03:57:04;;;;;;;19.13;12.95;;;;;;;8.61;97.48;102356.16;5059125;28;20029;-50
2022/11/30 03:59:30;;;;;;;18.65;12.98;;;;;;;8.60;97.67;102357.84;5052787;28;20037;-48
2022/11/30 04:01:55;;;;;;;18.52;12.90;;;;;;;8.59;97.49;102360.31;5058851;28;20055;-43
2022/11/30 04:04:20;;;;;;;19.77;12.85;;;;;;;8.52;97.59;102360.75;5061715;28;20100;-47
2022/11/30 04:06:46;;;;;;;16.75;12.65;;;;;;;8.58;97.68;102359.44;5059847;28;20488;-46
2022/11/30 04:09:11;;;;;;;21.00;12.68;;;;;;;8.59;97.65;102358.63;5059212;28;20500;-47
2022/11/30 04:11:37;;;;;;;18.00;12.60;;;;;;;8.58;97.52;102366.25;5063114;28;20029;-47
2022/11/30 04:14:02;;;;;;;18.88;12.90;;;;;;;8.56;97.72;102361.03;5060338;28;20128;-47
2022/11/30 04:16:27;;;;;;;19.48;12.93;;;;;;;8.62;97.78;102367.34;5061823;28;20033;-48
2022/11/30 04:18:53;;;;;;;20.63;13.15;;;;;;;8.61;97.52;102366.41;5063277;28;20029;-48
2022/11/30 04:21:18;;;;;;;20.45;13.63;;;;;;;8.57;97.57;102369.63;5065684;28;20025;-46
2022/11/30 04:23:43;;;;;;;21.10;13.35;;;;;;;8.55;97.31;102363.50;5062673;28;20056;-47
2022/11/30 04:26:13;;;;;;;21.00;13.55;;;;;;;8.57;97.69;102364.50;5061110;28;20377;-45
2022/11/30 04:28:39;;;;;;;20.75;13.48;;;;;;;8.49;97.53;102360.56;5063281;28;20418;-48
2022/11/30 04:31:05;;;;;;;18.67;13.50;;;;;;;8.49;97.64;102356.34;5055287;28;20025;-48
2022/11/30 04:33:30;;;;;;;17.60;13.40;;;;;;;8.50;97.74;102360.66;5058544;28;20037;-47
2022/11/30 04:35:58;;;;;;;20.63;12.95;;;;;;;8.50;98.06;102364.91;5058857;28;20044;-47
2022/11/30 04:38:24;;;;;;;19.13;13.50;;;;;;;8.50;97.73;102362.34;5062096;28;20036;-49
2022/11/30 04:40:49;;;;;;;19.38;12.85;;;;;;;8.53;97.68;102363.41;5061859;28;20028;-48
2022/11/30 04:43:15;;;;;;;19.75;13.10;;;;;;;8.51;97.45;102364.13;5063723;28;20052;-47
2022/11/30 04:45:41;;;;;;;18.70;13.25;;;;;;;8.51;97.62;102362.44;5065250;28;20031;-48
2022/11/30 04:48:07;;;;;;;21.33;13.23;;;;;;;8.53;97.34;102360.84;5061352;28;20587;-48
2022/11/30 04:50:32;;;;;;;18.95;12.88;;;;;;;8.53;97.32;102363.41;5066334;28;20044;-48
2022/11/30 04:52:58;;;;;;;15.57;12.00;;;;;;;8.55;97.07;102366.97;5065309;28;20041;-49
2022/11/30 04:55:24;;;;;;;18.95;13.48;;;;;;;8.49;97.02;102363.13;5065985;28;20147;-49
2022/11/30 04:57:49;;;;;;;21.10;13.15;;;;;;;8.51;96.89;102369.25;5062816;28;20029;-47
2022/11/30 05:00:17;;;;;;;22.00;13.50;;;;;;;8.48;96.92;102367.38;5063530;28;20074;-49
2022/11/30 05:02:42;;;;;;;18.70;13.00;;;;;;;8.44;96.73;102362.88;5055860;28;20039;-47
2022/11/30 05:05:08;;;;;;;20.83;12.95;;;;;;;8.49;96.93;102370.81;5064547;28;20021;-49
2022/11/30 05:07:34;;;;;;;18.80;13.75;;;;;;;8.46;96.70;102368.97;5062976;28;20078;-50
2022/11/30 05:09:59;;;;;;;18.15;13.05;;;;;;;8.46;96.72;102365.50;5063018;28;20024;-47
2022/11/30 05:12:24;;;;;;;18.85;13.63;;;;;;;8.50;96.75;102364.91;5062196;28;20024;-45
2022/11/30 05:14:50;;;;;;;20.15;13.65;;;;;;;8.40;96.91;102365.13;5066018;28;20024;-46
2022/11/30 05:17:15;;;;;;;19.13;14.25;;;;;;;8.42;96.62;102360.97;5067834;28;20111;-45
2022/11/30 05:19:41;;;;;;;18.70;13.15;;;;;;;8.41;96.75;102367.78;5063163;28;20027;-47
2022/11/30 05:22:06;;;;;;;20.27;13.45;;;;;;;8.41;96.98;102365.22;5066743;28;20079;-47
2022/11/30 05:24:31;;;;;;;20.00;13.50;;;;;;;8.42;96.79;102368.66;5068687;28;20481;-48
2022/11/30 05:26:57;;;;;;;20.38;14.18;;;;;;;8.39;96.81;102369.38;5062851;28;20082;-47
2022/11/30 05:29:22;;;;;;;20.92;13.25;;;;;;;8.44;96.68;102378.25;5065854;28;20040;-49
2022/11/30 05:31:48;;;;;;;19.58;14.02;;;;;;;8.42;96.72;102376.38;5058891;28;20032;-46
2022/11/30 05:34:13;;;;;;;20.83;13.57;;;;;;;8.39;96.81;102371.94;5064134;28;20075;-49
2022/11/30 05:36:39;;;;;;;18.98;14.18;;;;;;;8.39;96.57;102376.19;5065480;28;20033;-46
2022/11/30 05:39:04;;;;;;;22.92;14.20;;;;;;;8.39;96.54;102379.63;5065532;28;20067;-48
2022/11/30 05:41:30;;;;;;;22.10;14.02;;;;;;;8.32;96.62;102373.22;5061780;28;20039;-46
2022/11/30 05:43:56;;;;;;;20.25;13.75;;;;;;;8.33;96.66;102379.22;5064346;28;20113;-47
2022/11/30 05:46:21;;;;;;;17.40;13.05;;;;;;;8.32;96.68;102387.72;5061467;28;20033;-48
2022/11/30 05:48:46;;;;;;;17.73;13.75;;;;;;;8.33;96.75;102384.34;5063340;28;20033;-46
2022/11/30 05:51:17;;;;;;;20.73;14.00;;;;;;;8.39;96.89;102395.03;5067822;28;20093;-49
2022/11/30 05:53:44;;;;;;;21.02;13.90;;;;;;;8.36;96.72;102387.13;5064748;28;20581;-54
2022/11/30 05:56:14;;;;;;;19.98;13.73;;;;;;;8.38;96.62;102387.25;5063847;28;20028;-47
2022/11/30 05:58:39;;;;;;;19.83;13.80;;;;;;;8.35;96.70;102395.56;5067923;28;20020;-48
2022/11/30 06:01:06;;;;;;;21.33;13.75;;;;;;;8.33;96.77;102400.63;5068080;28;20070;-47
2022/11/30 06:03:33;;;;;;;21.33;13.65;;;;;;;8.35;96.63;102400.69;5058470;28;20469;-45
2022/11/30 06:05:58;;;;;;;19.23;14.52;;;;;;;8.36;96.62;102389.69;5063110;28;20074;-46
2022/11/30 06:08:25;;;;;;;19.58;14.18;;;;;;;8.38;96.52;102398.38;5059924;28;20032;-45
2022/11/30 06:10:50;;;;;;;19.10;14.73;;;;;;;8.34;96.75;102394.69;5066758;28;20028;-49
2022/11/30 06:13:16;;;;;;;22.38;14.75;;;;;;;8.37;96.62;102399.13;5062633;28;20036;-45
2022/11/30 06:15:41;;;;;;;20.40;14.35;;;;;;;8.39;96.62;102401.81;5066884;28;20021;-48
2022/11/30 06:18:09;;;;;;;19.63;14.45;;;;;;;8.37;96.88;102399.13;5063443;28;20105;-47
2022/11/30 06:20:35;;;;;;;21.02;14.38;;;;;;;8.40;96.61;102401.03;5063491;28;20032;-44
2022/11/30 06:23:01;;;;;;;20.25;14.60;;;;;;;8.38;96.62;102395.81;5063791;28;20387;-46
2022/11/30 06:25:26;;;;;;;22.45;15.10;;;;;;;8.37;96.54;102399.13;5066116;28;20107;-50
2022/11/30 06:27:52;;;;;;;21.98;14.77;;;;;;;8.37;96.69;102405.94;5067465;28;20032;-47
2022/11/30 06:30:18;;;;;;;21.77;15.48;;;;;;;8.34;96.62;102404.06;5066759;28;20064;-47
2022/11/30 06:32:48;;;;;;;20.33;14.82;;;;;;;8.37;96.64;102405.94;5065308;28;20036;-50
2022/11/30 06:35:14;;;;;;;18.40;14.23;;;;;;;8.36;96.53;102402.50;5060005;28;20439;-47
2022/11/30 06:37:39;;;;;;;19.85;14.48;;;;;;;8.33;96.60;102407.41;5058666;28;20054;-46
2022/11/30 06:40:06;;;;;;;21.63;14.52;;;;;;;8.36;96.54;102414.44;5066410;28;20036;-47
2022/11/30 06:42:31;;;;;;;20.00;13.93;;;;;;;8.36;96.75;102415.31;5064643;28;20443;-49
2022/11/30 06:44:57;;;;;;;21.33;14.45;;;;;;;8.30;96.55;102407.22;5062025;28;20064;-47
2022/11/30 06:47:23;;;;;;;22.40;14.35;;;;;;;8.33;96.87;102407.41;5064584;28;20067;-48
2022/11/30 06:49:48;;;;;;;20.83;14.40;;;;;;;8.28;96.87;102407.13;5065385;28;20096;-49
2022/11/30 06:52:14;;;;;;;22.52;14.48;;;;;;;8.29;96.77;102408.91;5065447;28;20068;-47
2022/11/30 06:54:39;;;;;;;20.92;13.77;;;;;;;8.30;96.89;102418.34;5068489;28;20028;-50
2022/11/30 06:57:04;;;;;;;17.85;13.38;;;;;;;8.32;96.85;102413.34;5060498;28;20110;-51
2022/11/30 06:59:30;;;;;;;20.92;14.25;;;;;;;8.31;97.38;102416.66;5068086;28;20040;-48
2022/11/30 07:01:55;;;;;;;20.10;14.80;;;;;;;8.31;97.03;102424.38;5066693;28;20116;-49
2022/11/30 07:04:20;;;;;;;18.33;14.05;;;;;;;8.29;96.54;102423.38;5067073;28;20059;-46
2022/11/30 07:06:46;;;;;;;21.25;14.63;;;;;;;8.27;96.80;102431.00;5059995;28;20519;-48
2022/11/30 07:09:12;;;;;;;19.52;14.80;;;;;;;8.29;96.80;102424.28;5058756;28;20031;-49
2022/11/30 07:11:38;;;;;;;23.75;14.55;;;;;;;8.22;96.75;102436.63;5058148;28;20028;-47
2022/11/30 07:14:03;;;;;;;21.67;14.07;;;;;;;8.26;96.89;102431.78;5057302;28;20409;-46
2022/11/30 07:16:28;;;;;;;18.75;13.65;;;;;;;8.26;96.96;102438.59;5061699;28;20037;-49
2022/11/30 07:18:54;;;;;;;19.02;13.73;;;;;;;8.27;96.92;102436.13;5060650;28;20033;-48
2022/11/30 07:21:19;;;;;;;22.58;14.80;;;;;;;8.26;96.80;102436.91;5059838;28;20039;-47
2022/11/30 07:26:30;;;;;;;20.15;14.05;;;;;;;8.26;96.89;102444.59;5048668;28;20458;-48
2022/11/30 07:28:57;;;;;;;22.88;14.77;;;;;;;8.24;97.04;102447.84;5059000;28;20028;-47
2022/11/30 07:31:30;;;;;;;20.05;15.15;;;;;;;8.24;97.09;102452.97;5059837;28;20136;-44
2022/11/30 07:33:57;;;;;;;21.17;13.70;;;;;;;8.25;97.13;102457.28;5061458;28;20019;-47
2022/11/30 07:36:25;;;;;;;20.38;14.80;;;;;;;8.23;96.93;102466.56;5054077;28;20048;-50
2022/11/30 07:38:51;;;;;;;20.90;14.82;;;;;;;8.21;96.87;102466.50;5061504;28;20107;-48
2022/11/30 07:41:16;;;;;;;20.17;14.73;;;;;;;8.21;96.82;102469.03;5059647;28;20158;-46
2022/11/30 07:43:42;;;;;;;22.52;14.68;;;;;;;8.24;96.83;102468.34;5061073;28;20436;-48
2022/11/30 07:46:11;;;;;;;20.63;14.95;;;;;;;8.21;96.95;102471.63;5059288;28;20029;-50
2022/11/30 07:48:37;;;;;;;21.08;15.50;;;;;;;8.27;96.96;102472.00;5063823;28;20025;-49
2022/11/30 07:51:22;;;;;;;21.23;15.73;;;;;;;8.33;97.26;102474.06;5061003;28;20043;-46
2022/11/30 07:53:48;;;;;;;21.88;15.25;;;;;;;8.28;96.86;102473.75;5060358;28;20131;-47
2022/11/30 07:56:16;;;;;;;24.80;15.57;;;;;;;8.26;96.92;102474.47;5061082;28;20110;-47
2022/11/30 07:58:42;;;;;;;22.77;15.85;;;;;;;8.29;96.78;102474.66;5061427;28;20044;-48
2022/11/30 08:01:11;;;;;;;21.52;15.80;;;;;;;8.28;96.90;102473.75;5059021;28;20032;-48
2022/11/30 08:03:37;;;;;;;24.90;15.90;;;;;;;8.28;96.88;102475.44;5060445;28;20389;-46
2022/11/30 08:06:08;;;;;;;22.73;15.63;;;;;;;8.32;96.86;102479.97;5060583;28;20488;-47
2022/11/30 08:08:36;;;;;;;24.67;15.57;;;;;;;8.29;96.58;102484.91;5052524;28;20107;-49
2022/11/30 08:11:02;;;;;;;23.02;16.20;;;;;;;8.27;96.78;102486.50;5060808;28;20041;-48
2022/11/30 08:13:28;;;;;;;24.38;16.50;;;;;;;8.27;96.91;102489.06;5059930;28;20024;-47
2022/11/30 08:15:54;;;;;;;25.42;17.05;;;;;;;8.28;96.84;102485.69;5060169;28;20042;-48
2022/11/30 08:18:20;;;;;;;25.17;16.90;;;;;;;8.22;96.95;102498.13;5060426;28;20025;-47
2022/11/30 08:20:45;;;;;;;24.13;16.90;;;;;;;8.26;97.17;102500.09;5060599;28;20035;-48
2022/11/30 08:23:11;;;;;;;22.33;17.00;;;;;;;8.25;97.20;102496.66;5059729;28;20507;-48
2022/11/30 08:25:37;;;;;;;23.73;16.67;;;;;;;8.28;97.32;102498.50;5063983;28;20031;-47
2022/11/30 08:28:03;;;;;;;25.90;18.08;;;;;;;8.23;97.54;102500.78;5062999;28;20109;-50
2022/11/30 08:30:28;;;;;;;27.13;17.45;;;;;;;8.28;97.13;102504.53;5062675;28;20185;-47
2022/11/30 08:32:53;;;;;;;26.25;16.67;;;;;;;8.25;97.11;102501.78;5062402;28;20389;-47
2022/11/30 08:35:19;;;;;;;23.13;16.95;;;;;;;8.29;96.48;102501.16;5066649;28;20048;-46
2022/11/30 08:37:44;;;;;;;26.08;17.08;;;;;;;8.24;96.59;102506.78;5057098;28;20041;-46
2022/11/30 08:40:10;;;;;;;24.23;16.73;;;;;;;8.25;96.47;102501.78;5065822;28;20040;-48
2022/11/30 08:42:36;;;;;;;25.33;16.88;;;;;;;8.27;96.44;102512.13;5065132;28;20036;-49
2022/11/30 08:45:01;;;;;;;23.75;16.85;;;;;;;8.25;96.44;102512.03;5061768;28;20025;-45
2022/11/30 08:47:29;;;;;;;23.73;16.25;;;;;;;8.27;96.56;102512.13;5062683;28;20073;-47
2022/11/30 08:50:00;;;;;;;26.83;16.70;;;;;;;8.24;96.72;102515.34;5061455;28;20350;-48
2022/11/30 08:52:25;;;;;;;26.85;17.23;;;;;;;8.31;96.66;102514.06;5069370;28;20123;-47
2022/11/30 08:54:51;;;;;;;26.02;17.73;;;;;;;8.34;96.66;102517.72;5062964;28;20158;-48
2022/11/30 08:57:18;;;;;;;23.65;17.33;;;;;;;8.46;96.49;102522.78;5065893;28;20401;-48
2022/11/30 08:59:44;;;;;;;26.40;17.63;;;;;;;8.54;96.10;102518.13;5067445;28;20036;-48
2022/11/30 09:02:11;;;;;;;27.20;18.00;;;;;;;8.59;96.13;102515.06;5066050;28;20503;-49
2022/11/30 09:04:36;;;;;;;27.38;17.98;;;;;;;8.66;96.24;102513.75;5070470;28;20032;-48
2022/11/30 09:07:02;;;;;;;29.92;18.88;;;;;;;8.73;95.66;102515.91;5069414;28;20028;-47
2022/11/30 09:09:27;;;;;;;29.27;19.65;;;;;;;8.74;95.49;102512.56;5057064;28;20028;-48
2022/11/30 09:11:53;;;;;;;33.10;19.80;;;;;;;8.79;95.17;102523.09;5066599;28;20486;-50
2022/11/30 09:14:18;;;;;;;31.10;20.88;;;;;;;8.75;95.21;102519.47;5067206;28;20036;-49
2022/11/30 09:16:43;;;;;;;31.55;20.10;;;;;;;8.78;95.18;102526.44;5068505;28;20060;-47
2022/11/30 09:19:09;;;;;;;29.10;19.85;;;;;;;8.81;95.17;102531.78;5062799;28;20032;-47
2022/11/30 09:21:34;;;;;;;30.23;20.15;;;;;;;8.85;95.40;102531.16;5068271;28;20482;-49
2022/11/30 09:23:59;;;;;;;31.55;20.98;;;;;;;8.86;95.45;102535.53;5065280;28;20049;-48
2022/11/30 09:26:25;;;;;;;29.45;20.08;;;;;;;8.82;95.14;102534.44;5063877;28;20020;-48
2022/11/30 09:28:52;;;;;;;29.23;19.95;;;;;;;8.88;95.13;102533.03;5062047;28;20433;-47
2022/11/30 09:31:23;;;;;;;31.00;21.15;;;;;;;8.82;94.92;102536.13;5059581;28;20147;-46
2022/11/30 09:33:49;;;;;;;31.55;20.17;;;;;;;8.80;95.15;102540.28;5066480;28;20380;-50
2022/11/30 09:36:17;;;;;;;29.83;20.60;;;;;;;8.75;95.43;102537.41;5067901;28;20031;-48
2022/11/30 09:38:42;;;;;;;30.40;19.67;;;;;;;8.77;95.26;102540.97;5069725;28;20425;-48
2022/11/30 09:41:52;;;;;;;29.50;20.17;;;;;;;8.82;96.16;102541.25;5061538;28;20031;-48
2022/11/30 09:44:36;;;;;;;29.83;20.92;;;;;;;8.78;96.32;102542.72;5058730;28;20103;-48
2022/11/30 09:47:28;;;;;;;32.97;21.08;;;;;;;8.76;97.19;102536.63;5064453;28;20028;-49
2022/11/30 09:49:54;;;;;;;29.33;20.48;;;;;;;8.74;96.72;102537.34;5068007;28;20041;-45
2022/11/30 09:52:27;;;;;;;31.30;20.70;;;;;;;8.79;97.03;102536.78;5067871;28;20029;-48
2022/11/30 09:54:55;;;;;;;32.03;20.65;;;;;;;8.80;97.15;102536.03;5068390;28;21220;-48
2022/11/30 09:57:26;;;;;;;32.78;21.40;;;;;;;8.82;96.78;102529.31;5067149;28;20028;-48
2022/11/30 10:00:13;;;;;;;32.95;21.90;;;;;;;8.86;97.30;102535.53;5068177;28;20036;-48
2022/11/30 10:02:40;;;;;;;28.65;20.05;;;;;;;8.85;96.55;102536.28;5064511;28;20024;-45
2022/11/30 10:05:27;;;;;;;31.15;20.30;;;;;;;8.90;96.67;102534.91;5068122;28;20140;-49
2022/11/30 10:08:19;;;;;;;32.42;21.13;;;;;;;8.88;96.43;102533.03;5065657;28;20146;-47
2022/11/30 10:11:06;;;;;;;29.85;20.38;;;;;;;8.88;96.47;102530.47;5041471;28;20052;-49
2022/11/30 10:13:49;;;;;;;32.67;19.98;;;;;;;8.84;95.40;102525.16;5062504;28;20048;-47
2022/11/30 10:16:24;;;;;;;28.67;18.42;;;;;;;8.89;95.08;102525.44;5061862;28;20020;-45
2022/11/30 10:19:11;;;;;;;27.08;18.73;;;;;;;8.89;94.45;102525.44;5061008;28;20041;-50
2022/11/30 10:21:54;;;;;;;26.88;18.05;;;;;;;8.91;93.35;102521.28;5062979;28;20023;-49
2022/11/30 10:24:41;;;;;;;27.80;17.67;;;;;;;8.95;93.56;102518.13;5062526;28;20056;-48
2022/11/30 10:27:47;;;;;;;25.40;17.50;;;;;;;8.98;92.78;102517.41;5061617;28;20024;-50
2022/11/30 10:30:21;;;;;;;26.73;17.48;;;;;;;8.93;92.00;102513.69;5060771;28;20421;-50
2022/11/30 10:32:50;;;;;;;23.92;16.08;;;;;;;8.95;90.20;102524.94;5068024;28;20520;-53
2022/11/30 10:35:30;;;;;;;23.20;15.57;;;;;;;8.99;92.34;102522.66;5063566;28;20029;-51
2022/11/30 10:37:58;;;;;;;23.73;16.08;;;;;;;8.99;90.77;102520.09;5061520;28;20043;-50
2022/11/30 10:40:45;;;;;;;26.93;17.50;;;;;;;9.01;90.53;102518.47;5063017;28;20111;-50
2022/11/30 10:43:20;;;;;;;24.63;16.65;;;;;;;9.01;91.59;102518.47;5058525;28;20508;-54
2022/11/30 10:45:48;;;;;;;26.77;18.10;;;;;;;8.96;91.72;102519.00;5065431;28;20103;-51
2022/11/30 10:48:32;;;;;;;24.35;16.92;;;;;;;8.97;91.63;102520.75;5059960;28;20032;-50
2022/11/30 10:51:00;;;;;;;27.23;17.60;;;;;;;8.97;90.61;102515.63;5061224;28;20535;-50
2022/11/30 10:53:26;;;;;;;27.92;18.55;;;;;;;9.00;91.76;102519.28;5061289;28;20531;-51
2022/11/30 10:56:08;;;;;;;26.38;17.25;;;;;;;9.04;90.70;102511.00;5061441;28;20127;-50
2022/11/30 10:58:55;;;;;;;26.02;17.10;;;;;;;8.98;89.56;102514.84;5059474;28;20476;-51
2022/11/30 11:01:38;;;;;;;26.15;16.98;;;;;;;9.00;90.08;102514.16;5061504;28;20024;-50
2022/11/30 11:04:18;;;;;;;25.48;17.50;;;;;;;8.98;90.76;102502.91;5059769;28;20734;-56
2022/11/30 11:06:55;;;;;;;26.55;17.48;;;;;;;8.98;89.98;102510.63;5060163;28;20036;-56
2022/11/30 11:09:32;;;;;;;27.20;18.27;;;;;;;9.00;91.20;102506.47;5061930;28;20078;-47
2022/11/30 11:12:12;;;;;;;27.30;18.17;;;;;;;9.02;91.32;102509.09;5063358;28;20025;-51
2022/11/30 11:14:38;;;;;;;28.67;18.52;;;;;;;9.07;92.08;102515.41;5057603;28;20416;-50
2022/11/30 11:17:20;;;;;;;25.30;17.85;;;;;;;9.10;91.65;102513.94;5059150;28;20039;-49
2022/11/30 11:19:47;;;;;;;30.67;18.33;;;;;;;9.09;92.10;102511.25;5059951;28;20036;-56
2022/11/30 11:22:19;;;;;;;26.92;18.75;;;;;;;9.09;91.78;102512.13;5061668;28;20575;-50
2022/11/30 11:24:46;;;;;;;29.25;18.13;;;;;;;9.08;91.86;102506.91;5061776;28;20053;-51